createdAt,value
2022-11-05T00:00:35.010Z,48.88
2022-11-05T00:03:20.471Z,49.75
2022-11-05T00:06:09.640Z,43.25
2022-11-05T00:08:54.915Z,39.53
2022-11-05T00:11:41.502Z,36.95
2022-11-05T00:14:26.743Z,42.45
2022-11-05T00:16:53.328Z,40.75
2022-11-05T00:19:19.903Z,40.00
2022-11-05T00:22:04.834Z,43.10
2022-11-05T00:24:49.786Z,38.97
2022-11-05T00:27:16.295Z,37.65
2022-11-05T00:29:43.206Z,38.00
2022-11-05T00:32:09.782Z,43.08
2022-11-05T00:34:36.311Z,39.57
2022-11-05T00:37:02.828Z,44.10
2022-11-05T00:39:29.758Z,47.80
2022-11-05T00:42:14.640Z,45.20
2022-11-05T00:44:59.516Z,40.50
2022-11-05T00:47:44.781Z,48.05
2022-11-05T00:50:11.869Z,41.72
2022-11-05T00:52:57.370Z,43.22
2022-11-05T00:55:41.028Z,39.88
2022-11-05T00:58:29.200Z,42.05
2022-11-05T01:01:01.430Z,42.13
2022-11-05T01:03:31.304Z,46.47
2022-11-05T01:06:06.239Z,44.92
2022-11-05T01:08:32.864Z,44.83
2022-11-05T01:10:59.828Z,52.67
2022-11-05T01:13:29.549Z,52.15
2022-11-05T01:15:56.919Z,50.53
2022-11-05T01:18:24.444Z,46.25
2022-11-05T01:20:51.302Z,47.42
2022-11-05T01:23:18.155Z,46.70
2022-11-05T01:25:45.781Z,51.53
2022-11-05T01:30:39.304Z,46.88
2022-11-05T01:33:05.902Z,52.25
2022-11-05T01:35:32.491Z,44.50
2022-11-05T01:37:59.103Z,45.45
2022-11-05T01:40:26.180Z,45.13
2022-11-05T01:42:52.789Z,44.70
2022-11-05T01:45:28.027Z,45.37
2022-11-05T01:48:09.143Z,40.85
2022-11-05T01:50:50.863Z,52.08
2022-11-05T01:53:27.010Z,54.15
2022-11-05T01:56:08.371Z,48.83
2022-11-05T01:58:42.490Z,46.25
2022-11-05T02:01:09.261Z,50.95
2022-11-05T02:03:36.106Z,50.75
2022-11-05T02:06:03.899Z,55.13
2022-11-05T02:09:09.416Z,50.95
2022-11-05T02:11:35.992Z,51.88
2022-11-05T02:14:02.555Z,44.53
2022-11-05T02:16:43.632Z,48.20
2022-11-05T02:19:25.419Z,45.45
2022-11-05T02:22:20.040Z,50.20
2022-11-05T02:25:31.677Z,47.45
2022-11-05T02:28:07.281Z,44.05
2022-11-05T02:30:46.239Z,46.20
2022-11-05T02:34:07.985Z,49.58
2022-11-05T02:36:44.790Z,47.42
2022-11-05T02:39:53.426Z,49.08
2022-11-05T02:42:40.844Z,50.25
2022-11-05T02:45:10.306Z,48.25
2022-11-05T02:48:03.986Z,53.05
2022-11-05T02:50:34.140Z,52.05
2022-11-05T02:53:45.253Z,53.75
2022-11-05T02:56:20.218Z,57.28
2022-11-05T02:58:46.813Z,48.75
2022-11-05T03:01:13.546Z,49.93
2022-11-05T03:03:43.709Z,45.53
2022-11-05T03:06:12.986Z,43.08
2022-11-05T03:09:08.657Z,43.70
2022-11-05T03:12:02.837Z,55.35
2022-11-05T03:15:01.362Z,46.42
2022-11-05T03:17:30.506Z,45.92
2022-11-05T03:20:19.343Z,53.85
2022-11-05T03:23:21.454Z,50.80
2022-11-05T03:25:53.868Z,53.65
2022-11-05T03:28:24.810Z,50.58
2022-11-05T03:30:54.033Z,51.83
2022-11-05T03:33:25.785Z,53.08
2022-11-05T03:35:56.399Z,59.67
2022-11-05T03:38:33.587Z,50.67
2022-11-05T03:43:34.329Z,55.78
2022-11-05T03:46:06.579Z,50.72
2022-11-05T03:48:38.297Z,54.45
2022-11-05T03:51:29.350Z,52.67
2022-11-05T03:53:59.176Z,57.33
2022-11-05T03:56:37.790Z,51.42
2022-11-05T03:59:06.679Z,53.00
2022-11-05T04:01:33.620Z,53.20
2022-11-05T04:04:00.267Z,52.95
2022-11-05T04:06:45.342Z,58.13
2022-11-05T04:09:30.242Z,55.67
2022-11-05T04:12:15.059Z,53.40
2022-11-05T04:14:41.688Z,56.38
2022-11-05T04:17:10.994Z,56.10
2022-11-05T04:19:58.678Z,61.47
2022-11-05T04:22:46.117Z,51.75
2022-11-05T04:25:14.146Z,57.58
2022-11-05T04:27:40.725Z,51.55
2022-11-05T04:30:20.523Z,52.33
2022-11-05T04:33:07.458Z,52.33
2022-11-05T04:35:47.346Z,52.97
2022-11-05T04:38:19.191Z,56.67
2022-11-05T04:40:46.982Z,56.55
2022-11-05T04:43:15.701Z,53.67
2022-11-05T04:45:42.925Z,51.05
2022-11-05T04:48:09.731Z,53.08
2022-11-05T04:50:36.327Z,54.80
2022-11-05T04:53:02.882Z,48.00
2022-11-05T04:55:29.616Z,52.77
2022-11-05T04:57:56.373Z,51.45
2022-11-05T05:00:24.048Z,55.20
2022-11-05T05:02:50.741Z,57.05
2022-11-05T05:05:17.357Z,65.53
2022-11-05T05:07:43.872Z,55.90
2022-11-05T05:10:11.296Z,55.70
2022-11-05T05:15:05.336Z,56.05
2022-11-05T05:20:16.797Z,49.45
2022-11-05T05:22:43.472Z,49.05
2022-11-05T05:25:10.019Z,51.33
2022-11-05T05:27:36.557Z,48.50
2022-11-05T05:30:03.547Z,49.37
2022-11-05T05:32:30.102Z,55.95
2022-11-05T05:34:56.692Z,51.30
2022-11-05T05:37:23.266Z,53.57
2022-11-05T05:39:50.169Z,50.45
2022-11-05T05:42:16.740Z,46.83
2022-11-05T05:44:43.333Z,50.90
2022-11-05T05:47:10.485Z,47.65
2022-11-05T05:49:37.012Z,51.83
2022-11-05T05:52:03.646Z,59.80
2022-11-05T05:54:32.864Z,49.58
2022-11-05T05:57:01.654Z,50.72
2022-11-05T05:59:28.248Z,50.17
2022-11-05T06:01:54.973Z,49.53
2022-11-05T06:04:21.720Z,47.70
2022-11-05T06:06:48.297Z,49.08
2022-11-05T06:09:15.367Z,45.40
2022-11-05T06:11:41.990Z,48.55
2022-11-05T06:14:13.030Z,46.47
2022-11-05T06:16:40.400Z,43.92
2022-11-05T06:19:07.842Z,45.42
2022-11-05T06:24:04.894Z,44.50
2022-11-05T06:26:31.697Z,49.38
2022-11-05T06:28:58.232Z,62.40
2022-11-05T06:31:25.490Z,42.73
2022-11-05T06:33:52.118Z,45.95
2022-11-05T06:36:20.085Z,46.40
2022-11-05T06:38:46.981Z,44.15
2022-11-05T06:41:13.807Z,50.55
2022-11-05T06:43:40.781Z,48.42
2022-11-05T06:46:08.030Z,45.30
2022-11-05T06:48:34.736Z,49.85
2022-11-05T06:51:01.309Z,53.40
2022-11-05T06:53:28.563Z,52.88
2022-11-05T06:55:55.208Z,48.80
2022-11-05T06:58:21.831Z,47.05
2022-11-05T07:00:48.908Z,44.73
2022-11-05T07:03:15.984Z,51.80
2022-11-05T07:05:46.663Z,43.03
2022-11-05T07:08:13.741Z,42.35
2022-11-05T07:10:40.395Z,42.53
2022-11-05T07:13:08.633Z,37.30
2022-11-05T07:15:36.734Z,45.88
2022-11-05T07:18:04.385Z,50.78
2022-11-05T07:20:34.321Z,43.03
2022-11-05T07:23:12.524Z,38.33
2022-11-05T07:25:40.169Z,46.03
2022-11-05T07:30:34.627Z,41.42
2022-11-05T07:33:01.508Z,40.95
2022-11-05T07:35:28.502Z,40.90
2022-11-05T07:37:55.576Z,42.33
2022-11-05T07:40:25.685Z,41.40
2022-11-05T07:42:58.263Z,37.38
2022-11-05T07:45:27.932Z,42.28
2022-11-05T07:48:00.400Z,38.17
2022-11-05T07:50:30.656Z,42.38
2022-11-05T07:53:02.225Z,45.83
2022-11-05T07:55:29.396Z,38.95
2022-11-05T07:57:55.957Z,38.30
2022-11-05T08:00:23.910Z,41.43
2022-11-05T08:03:07.363Z,53.55
2022-11-05T08:05:37.741Z,36.40
2022-11-05T08:08:05.743Z,44.20
2022-11-05T08:10:34.006Z,42.83
2022-11-05T08:13:00.661Z,35.33
2022-11-05T08:15:27.276Z,45.33
2022-11-05T08:18:10.465Z,37.70
2022-11-05T08:20:38.758Z,34.70
2022-11-05T08:23:05.890Z,37.65
2022-11-05T08:25:32.411Z,41.17
2022-11-05T08:28:04.699Z,33.50
2022-11-05T08:30:32.150Z,34.63
2022-11-05T08:35:27.986Z,37.33
2022-11-05T08:37:59.323Z,33.33
2022-11-05T08:40:26.502Z,28.48
2022-11-05T08:42:53.201Z,28.25
2022-11-05T08:45:19.770Z,33.63
2022-11-05T08:47:46.314Z,26.17
2022-11-05T08:50:12.851Z,27.70
2022-11-05T08:52:42.515Z,48.40
2022-11-05T08:55:09.639Z,32.50
2022-11-05T08:57:36.311Z,28.23
2022-11-05T09:00:03.372Z,24.92
2022-11-05T09:02:30.026Z,40.28
2022-11-05T09:04:56.676Z,35.15
2022-11-05T09:07:23.326Z,26.85
2022-11-05T09:09:49.920Z,25.10
2022-11-05T09:12:16.645Z,25.40
2022-11-05T09:14:43.211Z,25.80
2022-11-05T09:17:17.654Z,27.40
2022-11-05T09:19:44.439Z,33.38
2022-11-05T09:22:13.037Z,24.88
2022-11-05T09:24:40.695Z,25.55
2022-11-05T09:27:10.374Z,27.20
2022-11-05T09:29:37.067Z,22.05
2022-11-05T09:32:03.739Z,21.17
2022-11-05T09:34:30.309Z,27.95
2022-11-05T09:36:57.726Z,22.97
2022-11-05T09:41:54.705Z,21.73
2022-11-05T09:44:30.011Z,24.60
2022-11-05T09:47:00.875Z,22.65
2022-11-05T09:49:35.423Z,21.75
2022-11-05T09:52:02.595Z,26.38
2022-11-05T09:54:34.139Z,23.02
2022-11-05T09:57:03.102Z,31.50
2022-11-05T09:59:39.412Z,21.50
2022-11-05T10:02:26.791Z,24.07
2022-11-05T10:05:01.482Z,32.58
2022-11-05T10:07:35.486Z,21.38
2022-11-05T10:10:06.036Z,23.33
2022-11-05T10:12:52.817Z,33.25
2022-11-05T10:15:33.072Z,22.33
2022-11-05T10:18:14.654Z,19.83
2022-11-05T10:20:44.158Z,24.02
2022-11-05T10:23:14.469Z,23.92
2022-11-05T10:25:46.021Z,19.98
2022-11-05T10:28:20.947Z,21.90
2022-11-05T10:30:50.558Z,16.20
2022-11-05T10:33:29.041Z,17.00
2022-11-05T10:36:02.329Z,23.60
2022-11-05T10:38:29.258Z,24.02
2022-11-05T10:41:10.494Z,15.73
2022-11-05T10:43:40.920Z,28.60
2022-11-05T10:46:34.927Z,26.90
2022-11-05T10:49:09.847Z,18.52
2022-11-05T10:51:36.733Z,22.70
2022-11-05T10:54:19.371Z,23.17
2022-11-05T10:56:45.962Z,22.83
2022-11-05T10:59:27.602Z,20.95
2022-11-05T11:02:18.143Z,18.85
2022-11-05T11:04:54.256Z,19.63
2022-11-05T11:07:24.774Z,20.15
2022-11-05T11:09:52.316Z,23.45
2022-11-05T11:12:26.015Z,21.70
2022-11-05T11:15:15.806Z,20.83
2022-11-05T11:17:42.437Z,20.42
2022-11-05T11:20:23.527Z,28.30
2022-11-05T11:23:02.979Z,28.83
2022-11-05T11:25:44.883Z,17.73
2022-11-05T11:28:26.832Z,16.50
2022-11-05T11:31:03.601Z,12.95
2022-11-05T11:33:31.617Z,16.23
2022-11-05T11:35:58.777Z,17.20
2022-11-05T11:38:30.060Z,12.82
2022-11-05T11:41:17.513Z,17.00
2022-11-05T11:43:45.050Z,16.50
2022-11-05T11:46:20.587Z,15.73
2022-11-05T11:48:49.412Z,22.38
2022-11-05T11:51:30.378Z,16.08
2022-11-05T11:54:00.192Z,12.45
2022-11-05T11:56:29.141Z,14.82
2022-11-05T11:59:01.127Z,15.45
2022-11-05T12:01:49.672Z,15.45
2022-11-05T12:04:35.743Z,20.13
2022-11-05T12:07:37.080Z,20.73
2022-11-05T12:10:18.673Z,25.73
2022-11-05T12:13:14.141Z,46.33
2022-11-05T12:16:02.398Z,21.88
2022-11-05T12:18:55.303Z,25.38
2022-11-05T12:22:03.447Z,14.93
2022-11-05T12:24:54.732Z,12.63
2022-11-05T12:28:04.340Z,12.77
2022-11-05T12:31:01.164Z,12.32
2022-11-05T12:36:25.951Z,10.93
2022-11-05T12:39:14.643Z,16.90
2022-11-05T12:41:59.971Z,12.77
2022-11-05T12:44:45.182Z,13.95
2022-11-05T12:47:14.655Z,15.70
2022-11-05T12:50:02.380Z,16.27
2022-11-05T12:52:38.447Z,8.85
2022-11-05T12:55:21.173Z,9.80
2022-11-05T12:57:51.940Z,14.05
2022-11-05T13:00:27.833Z,11.85
2022-11-05T13:02:57.143Z,16.02
2022-11-05T13:05:40.887Z,13.52
2022-11-05T13:08:48.990Z,16.50
2022-11-05T13:11:21.625Z,12.02
2022-11-05T13:14:18.372Z,9.45
2022-11-05T13:19:36.538Z,24.48
2022-11-05T13:22:13.327Z,15.32
2022-11-05T13:24:49.744Z,14.50
2022-11-05T13:27:22.357Z,15.68
2022-11-05T13:30:12.427Z,140.68
2022-11-05T13:32:53.259Z,171.70
2022-11-05T13:35:31.467Z,50.97
2022-11-05T13:38:26.747Z,71.90
2022-11-05T13:41:35.697Z,79.50
2022-11-05T13:44:13.298Z,32.83
2022-11-05T13:47:13.206Z,133.02
2022-11-05T13:50:18.907Z,15.20
2022-11-05T13:52:51.520Z,21.23
2022-11-05T13:55:57.674Z,16.00
2022-11-05T13:58:37.576Z,11.30
2022-11-05T14:01:20.492Z,11.57
2022-11-05T14:03:50.847Z,11.45
2022-11-05T14:06:33.434Z,13.80
2022-11-05T14:09:10.198Z,10.32
2022-11-05T14:11:50.914Z,9.48
2022-11-05T14:14:29.895Z,11.18
2022-11-05T14:17:28.162Z,29.77
2022-11-05T14:20:37.300Z,18.45
2022-11-05T14:23:23.136Z,6.93
2022-11-05T14:26:19.721Z,11.02
2022-11-05T14:28:48.745Z,16.80
2022-11-05T14:31:47.349Z,17.92
2022-11-05T14:34:16.965Z,23.25
2022-11-05T14:37:14.062Z,18.50
2022-11-05T14:39:41.916Z,18.95
2022-11-05T14:42:24.711Z,16.63
2022-11-05T14:45:14.141Z,14.45
2022-11-05T14:47:53.093Z,15.80
2022-11-05T14:50:31.105Z,16.60
2022-11-05T14:53:06.778Z,16.88
2022-11-05T14:55:39.269Z,12.60
2022-11-05T14:58:46.167Z,17.50
2022-11-05T15:01:42.161Z,19.65
2022-11-05T15:04:32.888Z,16.85
2022-11-05T15:07:05.856Z,58.38
2022-11-05T15:09:40.410Z,55.90
2022-11-05T15:12:25.259Z,51.67
2022-11-05T15:15:02.172Z,61.00
2022-11-05T15:17:38.761Z,46.88
2022-11-05T15:20:16.707Z,50.40
2022-11-05T15:22:51.841Z,83.18
2022-11-05T15:25:28.719Z,90.63
2022-11-05T15:28:14.112Z,54.72
2022-11-05T15:31:01.681Z,38.42
2022-11-05T15:33:28.546Z,47.50
2022-11-05T15:36:07.604Z,42.67
2022-11-05T15:38:36.099Z,47.08
2022-11-05T15:41:20.032Z,59.28
2022-11-05T15:43:51.183Z,52.00
2022-11-05T15:46:21.855Z,60.30
2022-11-05T15:48:54.864Z,149.48
2022-11-05T15:51:23.984Z,34.88
2022-11-05T15:54:16.188Z,40.20
2022-11-05T15:56:49.194Z,28.30
2022-11-05T15:59:22.684Z,29.80
2022-11-05T16:01:58.057Z,16.75
2022-11-05T16:04:32.114Z,24.42
2022-11-05T16:07:11.108Z,27.08
2022-11-05T16:09:43.661Z,16.17
2022-11-05T16:12:19.586Z,19.83
2022-11-05T16:14:57.172Z,20.02
2022-11-05T16:17:28.796Z,19.80
2022-11-05T16:19:56.951Z,19.92
2022-11-05T16:22:24.143Z,23.63
2022-11-05T16:24:52.017Z,24.27
2022-11-05T16:27:22.047Z,26.17
2022-11-05T16:29:57.317Z,19.55
2022-11-05T16:32:31.135Z,22.08
2022-11-05T16:35:01.588Z,21.85
2022-11-05T16:37:40.042Z,23.02
2022-11-05T16:40:19.505Z,24.38
2022-11-05T16:42:48.592Z,21.42
2022-11-05T16:45:19.196Z,22.80
2022-11-05T16:47:48.792Z,23.88
2022-11-05T16:50:22.231Z,30.27
2022-11-05T16:52:49.338Z,31.48
2022-11-05T16:55:17.296Z,23.67
2022-11-05T16:57:47.753Z,23.42
2022-11-05T17:00:17.180Z,23.05
2022-11-05T17:02:44.466Z,27.70
2022-11-05T17:07:57.721Z,32.45
2022-11-05T17:10:25.926Z,29.02
2022-11-05T17:12:54.031Z,33.80
2022-11-05T17:15:25.582Z,28.10
2022-11-05T17:17:54.674Z,33.38
2022-11-05T17:20:39.926Z,29.42
2022-11-05T17:23:21.475Z,31.60
2022-11-05T17:25:52.662Z,35.50
2022-11-05T17:28:21.363Z,30.75
2022-11-05T17:30:54.245Z,26.60
2022-11-05T17:33:23.235Z,32.70
2022-11-05T17:35:50.713Z,40.97
2022-11-05T17:38:17.552Z,29.23
2022-11-05T17:40:44.108Z,44.55
2022-11-05T17:43:11.306Z,36.53
2022-11-05T17:48:30.971Z,32.20
2022-11-05T17:50:57.535Z,32.58
2022-11-05T17:53:24.253Z,39.10
2022-11-05T17:55:50.787Z,29.90
2022-11-05T17:58:17.524Z,29.93
2022-11-05T18:00:45.776Z,32.15
2022-11-05T18:03:13.358Z,28.05
2022-11-05T18:05:41.275Z,33.88
2022-11-05T18:08:08.790Z,25.35
2022-11-05T18:10:41.141Z,29.60
2022-11-05T18:13:10.214Z,27.02
2022-11-05T18:15:40.966Z,23.45
2022-11-05T18:18:09.244Z,30.35
2022-11-05T18:20:35.897Z,26.88
2022-11-05T18:23:02.626Z,25.38
2022-11-05T18:25:29.213Z,27.23
2022-11-05T18:27:56.863Z,29.33
2022-11-05T18:30:24.458Z,28.25
2022-11-05T18:32:52.316Z,31.00
2022-11-05T18:35:20.403Z,35.22
2022-11-05T18:37:48.471Z,37.03
2022-11-05T18:40:16.323Z,35.03
2022-11-05T18:42:43.131Z,29.13
2022-11-05T18:45:10.756Z,32.92
2022-11-05T18:47:37.296Z,35.92
2022-11-05T18:50:05.651Z,30.07
2022-11-05T18:52:32.851Z,32.47
2022-11-05T18:54:59.790Z,29.17
2022-11-05T18:57:26.879Z,29.65
2022-11-05T18:59:53.847Z,29.65
2022-11-05T19:02:20.543Z,35.63
2022-11-05T19:05:27.545Z,42.55
2022-11-05T19:07:44.545Z,38.83
2022-11-05T19:10:12.464Z,41.37
2022-11-05T19:12:42.273Z,37.00
2022-11-05T19:15:10.129Z,43.42
2022-11-05T19:17:37.707Z,40.95
2022-11-05T19:20:06.378Z,31.48
2022-11-05T19:22:33.274Z,31.80
2022-11-05T19:25:01.365Z,33.40
2022-11-05T19:27:27.994Z,33.47
2022-11-05T19:29:55.784Z,37.23
2022-11-05T19:32:24.493Z,30.08
2022-11-05T19:34:52.187Z,32.40
2022-11-05T19:37:20.140Z,31.98
2022-11-05T19:39:50.431Z,33.33
2022-11-05T19:42:18.044Z,34.90
2022-11-05T19:44:44.643Z,39.42
2022-11-05T19:47:11.254Z,37.50
2022-11-05T19:49:37.798Z,34.30
2022-11-05T19:52:04.632Z,31.90
2022-11-05T19:54:32.419Z,34.72
2022-11-05T19:57:00.332Z,35.58
2022-11-05T19:59:26.966Z,40.22
2022-11-05T20:01:53.614Z,41.58
2022-11-05T20:04:20.316Z,44.30
2022-11-05T20:06:46.860Z,35.73
2022-11-05T20:09:23.359Z,32.53
2022-11-05T20:11:54.933Z,35.08
2022-11-05T20:14:22.764Z,33.58
2022-11-05T20:16:49.996Z,35.20
2022-11-05T20:19:19.438Z,36.42
2022-11-05T20:21:46.619Z,38.70
2022-11-05T20:24:18.771Z,40.42
2022-11-05T20:26:48.890Z,40.13
2022-11-05T20:29:15.566Z,43.50
2022-11-05T20:31:42.163Z,36.63
2022-11-05T20:34:08.994Z,34.63
2022-11-05T20:36:35.557Z,44.65
2022-11-05T20:39:02.931Z,37.67
2022-11-05T20:43:57.284Z,34.30
2022-11-05T20:46:23.972Z,34.88
2022-11-05T20:48:51.380Z,31.80
2022-11-05T20:53:47.768Z,35.53
2022-11-05T20:56:19.651Z,33.35
2022-11-05T20:58:47.332Z,37.35
2022-11-05T21:01:15.451Z,39.10
2022-11-05T21:03:42.805Z,37.28
2022-11-05T21:06:09.445Z,35.25
2022-11-05T21:08:36.299Z,41.08
2022-11-05T21:11:02.888Z,34.83
2022-11-05T21:13:30.313Z,31.88
2022-11-05T21:18:28.022Z,35.13
2022-11-05T21:20:55.283Z,36.22
2022-11-05T21:23:22.195Z,38.22
2022-11-05T21:25:48.747Z,39.67
2022-11-05T21:28:16.292Z,39.77
2022-11-05T21:30:45.850Z,39.63
2022-11-05T21:33:14.517Z,40.88
2022-11-05T21:35:44.122Z,38.20
2022-11-05T21:38:12.877Z,36.03
2022-11-05T21:40:40.531Z,37.92
2022-11-05T21:45:33.831Z,43.72
2022-11-05T21:48:00.433Z,50.50
2022-11-05T21:50:45.726Z,46.42
2022-11-05T21:53:35.602Z,41.38
2022-11-05T21:56:37.820Z,47.47
2022-11-05T21:59:23.734Z,46.35
2022-11-05T22:01:50.383Z,39.85
2022-11-05T22:04:17.207Z,34.85
2022-11-05T22:06:43.761Z,37.10
2022-11-05T22:09:10.303Z,44.40
2022-11-05T22:11:37.631Z,44.97
2022-11-05T22:16:30.599Z,44.20
2022-11-05T22:18:58.183Z,44.57
2022-11-05T22:21:26.103Z,45.17
2022-11-05T22:23:53.754Z,51.47
2022-11-05T22:26:24.199Z,44.08
2022-11-05T22:28:55.350Z,47.75
2022-11-05T22:31:22.522Z,42.25
2022-11-05T22:33:49.616Z,44.22
2022-11-05T22:36:16.197Z,44.20
2022-11-05T22:38:44.195Z,48.00
2022-11-05T22:41:14.255Z,48.90
2022-11-05T22:43:41.107Z,41.92
2022-11-05T22:46:22.816Z,45.03
2022-11-05T22:48:50.140Z,42.00
2022-11-05T22:51:37.270Z,38.67
2022-11-05T22:56:33.119Z,41.05
2022-11-05T22:59:00.003Z,41.08
2022-11-05T23:01:27.159Z,39.75
2022-11-05T23:03:56.410Z,39.97
2022-11-05T23:06:44.270Z,39.80
2022-11-05T23:09:52.657Z,39.75
2022-11-05T23:12:45.049Z,40.67
2022-11-05T23:15:31.745Z,41.75
2022-11-05T23:18:18.855Z,37.78
2022-11-05T23:21:09.227Z,38.03
2022-11-05T23:23:55.688Z,40.38
2022-11-05T23:26:41.701Z,39.97
2022-11-05T23:29:09.374Z,36.60
2022-11-05T23:31:58.722Z,37.70
2022-11-05T23:34:26.483Z,34.92
2022-11-05T23:37:24.867Z,37.88
2022-11-05T23:39:52.790Z,41.25
2022-11-05T23:42:43.355Z,36.75
2022-11-05T23:45:38.133Z,39.70
2022-11-05T23:48:16.781Z,34.53
2022-11-05T23:51:00.872Z,36.40
2022-11-05T23:53:28.915Z,31.80
2022-11-05T23:56:10.529Z,35.15
2022-11-05T23:58:39.551Z,38.30
